createdAt,value
2017-07-31T00:00:02.800Z,0
2017-07-31T00:05:02.707Z,0
2017-07-31T00:10:03.260Z,0
2017-07-31T00:15:02.653Z,0
2017-07-31T00:20:03.081Z,0
2017-07-31T00:25:03.375Z,0
2017-07-31T00:30:02.689Z,0
2017-07-31T00:35:03.172Z,0
2017-07-31T00:40:02.493Z,0
2017-07-31T00:50:03.338Z,0
2017-07-31T00:55:02.727Z,0
2017-07-31T01:00:03.170Z,0
2017-07-31T01:05:02.524Z,0
2017-07-31T01:10:03.053Z,0
2017-07-31T01:15:03.392Z,0
2017-07-31T01:20:02.820Z,0
2017-07-31T01:25:03.156Z,0
2017-07-31T01:30:03.433Z,0
2017-07-31T01:35:02.875Z,0
2017-07-31T01:40:03.222Z,0
2017-07-31T01:45:02.485Z,0
2017-07-31T01:50:02.776Z,0
2017-07-31T01:55:03.210Z,0
2017-07-31T02:00:02.634Z,0
2017-07-31T02:05:02.946Z,0
2017-07-31T02:10:03.355Z,0
2017-07-31T02:15:02.720Z,0
2017-07-31T02:20:03.141Z,0
2017-07-31T02:25:02.560Z,0
2017-07-31T02:30:02.961Z,0
2017-07-31T02:35:03.186Z,0
2017-07-31T02:40:02.564Z,0
2017-07-31T02:45:03.067Z,0
2017-07-31T02:50:02.513Z,0
2017-07-31T02:55:02.794Z,0
2017-07-31T03:00:03.229Z,0
2017-07-31T03:05:02.525Z,0
2017-07-31T03:10:02.876Z,0
2017-07-31T03:15:03.317Z,0
2017-07-31T03:20:02.722Z,0
2017-07-31T03:25:02.987Z,0
2017-07-31T03:30:03.395Z,0
2017-07-31T03:35:02.677Z,0
2017-07-31T03:40:03.120Z,0
2017-07-31T03:45:03.420Z,0
2017-07-31T03:50:02.713Z,0
2017-07-31T03:55:03.019Z,0
2017-07-31T04:00:02.496Z,0
2017-07-31T04:05:02.842Z,0
2017-07-31T04:10:03.323Z,0
2017-07-31T04:15:02.672Z,0
2017-07-31T04:20:03.144Z,0
2017-07-31T04:25:02.634Z,0
2017-07-31T04:30:03.326Z,0
2017-07-31T04:35:02.745Z,0
2017-07-31T04:40:03.129Z,0
2017-07-31T04:45:02.543Z,0
2017-07-31T04:50:02.808Z,0
2017-07-31T04:55:03.099Z,0
2017-07-31T05:00:03.381Z,0
2017-07-31T05:05:02.608Z,0
2017-07-31T05:10:03.075Z,0
2017-07-31T05:15:02.495Z,0
2017-07-31T05:20:02.788Z,0
2017-07-31T05:25:03.096Z,0
2017-07-31T05:30:03.395Z,1
2017-07-31T05:35:02.807Z,0
2017-07-31T05:40:03.183Z,0
2017-07-31T05:45:02.472Z,0
2017-07-31T05:50:02.902Z,0
2017-07-31T05:55:03.285Z,0
2017-07-31T06:00:02.570Z,0
2017-07-31T06:05:02.991Z,0
2017-07-31T06:10:03.367Z,1
2017-07-31T06:15:02.776Z,1
2017-07-31T06:20:03.116Z,0
2017-07-31T06:25:03.406Z,2
2017-07-31T06:30:02.600Z,0
2017-07-31T06:35:02.971Z,1
2017-07-31T06:40:03.342Z,0
2017-07-31T06:45:02.613Z,0
2017-07-31T06:50:02.958Z,0
2017-07-31T06:55:03.405Z,1
2017-07-31T07:00:02.708Z,0
2017-07-31T07:05:02.929Z,0
2017-07-31T07:10:03.378Z,1
2017-07-31T07:15:02.746Z,0
2017-07-31T07:20:03.245Z,0
2017-07-31T07:25:02.569Z,0
2017-07-31T07:30:03.000Z,1
2017-07-31T07:35:03.327Z,1
2017-07-31T07:40:02.770Z,0
2017-07-31T07:45:03.245Z,0
2017-07-31T07:50:02.700Z,0
2017-07-31T07:55:03.150Z,2
2017-07-31T08:00:03.420Z,1
2017-07-31T08:05:02.796Z,0
2017-07-31T08:10:03.128Z,1
2017-07-31T08:15:03.410Z,2
2017-07-31T08:20:02.787Z,0
2017-07-31T08:25:03.234Z,2
2017-07-31T08:30:02.890Z,0
2017-07-31T08:35:03.241Z,6
2017-07-31T08:40:02.635Z,4
2017-07-31T08:45:02.926Z,2
2017-07-31T08:50:03.213Z,4
2017-07-31T08:55:02.627Z,8
2017-07-31T09:00:03.050Z,6
2017-07-31T09:05:03.381Z,3
2017-07-31T09:10:02.785Z,4
2017-07-31T09:15:03.162Z,5
2017-07-31T09:20:02.615Z,6
2017-07-31T09:25:02.946Z,2
2017-07-31T09:30:03.344Z,4
2017-07-31T09:35:02.640Z,6
2017-07-31T09:40:03.159Z,5
2017-07-31T09:45:03.434Z,7
2017-07-31T09:50:02.668Z,6
2017-07-31T09:55:02.929Z,4
2017-07-31T10:00:03.240Z,6
2017-07-31T10:05:03.477Z,3
2017-07-31T10:10:02.958Z,3
2017-07-31T10:15:03.260Z,4
2017-07-31T10:20:02.561Z,4
2017-07-31T10:25:02.813Z,4
2017-07-31T10:30:03.081Z,7
2017-07-31T10:35:02.546Z,4
2017-07-31T10:40:03.101Z,6
2017-07-31T10:45:02.580Z,3
2017-07-31T10:50:02.820Z,3
2017-07-31T10:55:03.233Z,4
2017-07-31T11:00:02.678Z,1
2017-07-31T11:05:03.081Z,4
2017-07-31T11:10:03.362Z,4
2017-07-31T11:15:02.643Z,1
2017-07-31T11:20:02.955Z,8
2017-07-31T11:25:03.352Z,2
2017-07-31T11:30:02.660Z,5
2017-07-31T11:35:03.116Z,6
2017-07-31T11:40:02.558Z,5
2017-07-31T11:45:02.901Z,5
2017-07-31T11:50:03.331Z,4
2017-07-31T11:55:02.520Z,6
2017-07-31T12:00:02.726Z,6
2017-07-31T12:05:03.015Z,5
2017-07-31T12:10:02.493Z,4
2017-07-31T12:15:02.940Z,5
2017-07-31T12:20:03.275Z,4
2017-07-31T12:25:02.572Z,3
2017-07-31T12:30:03.014Z,5
2017-07-31T12:35:03.270Z,4
2017-07-31T12:40:02.515Z,5
2017-07-31T12:45:03.029Z,3
2017-07-31T12:50:03.360Z,8
2017-07-31T12:55:02.729Z,3
2017-07-31T13:00:03.019Z,5
2017-07-31T13:05:02.503Z,7
2017-07-31T13:10:02.955Z,4
2017-07-31T13:15:03.183Z,6
2017-07-31T13:20:02.639Z,4
2017-07-31T13:25:02.929Z,8
2017-07-31T13:30:03.185Z,7
2017-07-31T13:35:02.520Z,7
2017-07-31T13:40:03.296Z,6
2017-07-31T13:45:02.665Z,7
2017-07-31T13:50:03.033Z,7
2017-07-31T13:55:02.502Z,3
2017-07-31T14:00:02.845Z,5
2017-07-31T14:05:03.275Z,1
2017-07-31T14:10:02.794Z,4
2017-07-31T14:15:03.059Z,2
2017-07-31T14:20:03.406Z,7
2017-07-31T14:25:02.811Z,6
2017-07-31T14:30:03.219Z,7
2017-07-31T14:35:02.685Z,5
2017-07-31T14:40:02.953Z,2
2017-07-31T14:45:03.238Z,3
2017-07-31T14:50:02.679Z,4
2017-07-31T14:55:03.144Z,5
2017-07-31T15:00:02.563Z,5
2017-07-31T15:05:03.146Z,6
2017-07-31T15:10:02.488Z,3
2017-07-31T15:15:02.802Z,7
2017-07-31T15:20:03.254Z,6
2017-07-31T15:25:02.662Z,3
2017-07-31T15:30:02.933Z,3
2017-07-31T15:35:03.190Z,4
2017-07-31T15:40:02.478Z,2
2017-07-31T15:45:02.817Z,2
2017-07-31T15:50:03.279Z,2
2017-07-31T15:55:02.568Z,5
2017-07-31T16:00:02.873Z,5
2017-07-31T16:05:03.206Z,5
2017-07-31T16:10:02.510Z,3
2017-07-31T16:15:02.914Z,3
2017-07-31T16:20:03.211Z,2
2017-07-31T16:25:02.617Z,4
2017-07-31T16:30:02.931Z,4
2017-07-31T16:35:03.224Z,4
2017-07-31T16:40:02.704Z,3
2017-07-31T16:45:03.079Z,3
2017-07-31T16:50:02.469Z,1
2017-07-31T16:55:02.888Z,0
2017-07-31T17:00:03.501Z,2
2017-07-31T17:05:03.009Z,1
2017-07-31T17:10:03.356Z,1
2017-07-31T17:15:02.566Z,1
2017-07-31T17:20:02.923Z,0
2017-07-31T17:25:03.277Z,1
2017-07-31T17:30:02.521Z,0
2017-07-31T17:35:02.752Z,0
2017-07-31T17:40:03.217Z,0
2017-07-31T17:45:02.734Z,0
2017-07-31T17:50:03.067Z,0
2017-07-31T17:55:03.296Z,0
2017-07-31T18:00:02.698Z,0
2017-07-31T18:05:02.972Z,0
2017-07-31T18:10:03.316Z,0
2017-07-31T18:15:02.766Z,0
2017-07-31T18:20:03.237Z,0
2017-07-31T18:25:02.539Z,0
2017-07-31T18:30:02.817Z,0
2017-07-31T18:35:03.273Z,0
2017-07-31T18:40:02.737Z,0
2017-07-31T18:45:02.971Z,0
2017-07-31T18:50:03.365Z,0
2017-07-31T18:55:02.759Z,0
2017-07-31T19:00:02.958Z,0
2017-07-31T19:05:03.325Z,0
2017-07-31T19:10:02.678Z,0
2017-07-31T19:15:02.916Z,0
2017-07-31T19:20:03.188Z,0
2017-07-31T19:25:02.602Z,0
2017-07-31T19:30:03.023Z,0
2017-07-31T19:35:02.485Z,0
2017-07-31T19:40:02.852Z,0
2017-07-31T19:45:03.151Z,0
2017-07-31T19:50:03.429Z,0
2017-07-31T19:55:02.825Z,0
2017-07-31T20:00:03.231Z,0
2017-07-31T20:05:02.655Z,0
2017-07-31T20:10:02.985Z,0
2017-07-31T20:15:03.391Z,0
2017-07-31T20:20:02.635Z,0
2017-07-31T20:25:02.834Z,0
2017-07-31T20:30:03.229Z,0
2017-07-31T20:35:02.669Z,0
2017-07-31T20:40:02.993Z,0
2017-07-31T20:45:03.283Z,0
2017-07-31T20:50:02.676Z,0
2017-07-31T20:55:03.180Z,0
2017-07-31T21:00:02.421Z,0
2017-07-31T21:05:02.726Z,0
2017-07-31T21:10:03.037Z,0
2017-07-31T21:15:03.289Z,0
2017-07-31T21:20:02.471Z,0
2017-07-31T21:25:02.717Z,0
2017-07-31T21:30:03.198Z,0
2017-07-31T21:35:02.576Z,0
2017-07-31T21:40:02.988Z,0
2017-07-31T21:45:02.469Z,0
2017-07-31T21:50:02.776Z,0
2017-07-31T21:55:03.107Z,0
2017-07-31T22:00:03.695Z,0
2017-07-31T22:05:03.067Z,0
2017-07-31T22:10:02.513Z,0
2017-07-31T22:15:02.900Z,0
2017-07-31T22:20:03.306Z,0
2017-07-31T22:25:02.762Z,0
2017-07-31T22:30:03.077Z,0
2017-07-31T22:35:03.320Z,0
2017-07-31T22:40:02.789Z,0
2017-07-31T22:45:03.280Z,0
2017-07-31T22:50:02.628Z,0
2017-07-31T22:55:03.010Z,0
2017-07-31T23:00:03.626Z,0
2017-07-31T23:05:03.353Z,0
2017-07-31T23:10:02.764Z,0
2017-07-31T23:15:03.039Z,0
2017-07-31T23:20:03.290Z,0
2017-07-31T23:25:02.595Z,0
2017-07-31T23:30:02.979Z,0
2017-07-31T23:35:03.318Z,0
2017-07-31T23:40:02.751Z,0
2017-07-31T23:45:03.075Z,0
2017-07-31T23:50:02.432Z,0
2017-07-31T23:55:02.829Z,0
